sensor_id;sensor_type;location;lat;lon;timestamp;pressure;altitude;pressure_sealevel;temperature;humidity
12969;BME280;6549;53.128;8.182;2023-06-10T00:02:34;101552.19;;;16.24;100.00
12969;BME280;6549;53.128;8.182;2023-06-10T00:05:35;101542.63;;;16.25;100.00
12969;BME280;6549;53.128;8.182;2023-06-10T00:08:36;101549.78;;;16.26;100.00
12969;BME280;6549;53.128;8.182;2023-06-10T00:11:37;101548.97;;;16.26;100.00
12969;BME280;6549;53.128;8.182;2023-06-10T00:14:39;101544.69;;;16.14;100.00
12969;BME280;6549;53.128;8.182;2023-06-10T00:17:40;101541.59;;;15.98;100.00
12969;BME280;6549;53.128;8.182;2023-06-10T00:20:41;101540.81;;;15.94;100.00
12969;BME280;6549;53.128;8.182;2023-06-10T00:23:42;101549.50;;;16.03;100.00
12969;BME280;6549;53.128;8.182;2023-06-10T00:26:43;101542.78;;;15.93;100.00
12969;BME280;6549;53.128;8.182;2023-06-10T00:29:44;101546.81;;;15.89;100.00
12969;BME280;6549;53.128;8.182;2023-06-10T00:32:44;101556.25;;;15.95;100.00
12969;BME280;6549;53.128;8.182;2023-06-10T00:35:44;101553.13;;;15.93;100.00
12969;BME280;6549;53.128;8.182;2023-06-10T00:38:44;101554.69;;;15.97;100.00
12969;BME280;6549;53.128;8.182;2023-06-10T00:41:45;101549.94;;;15.91;100.00
12969;BME280;6549;53.128;8.182;2023-06-10T00:44:47;101556.75;;;15.79;100.00
12969;BME280;6549;53.128;8.182;2023-06-10T00:47:47;101568.97;;;15.85;100.00
12969;BME280;6549;53.128;8.182;2023-06-10T00:50:48;101561.13;;;15.69;100.00
12969;BME280;6549;53.128;8.182;2023-06-10T00:53:49;101550.84;;;15.66;100.00
12969;BME280;6549;53.128;8.182;2023-06-10T00:56:49;101555.59;;;15.59;100.00
12969;BME280;6549;53.128;8.182;2023-06-10T00:59:50;101553.25;;;15.57;100.00
12969;BME280;6549;53.128;8.182;2023-06-10T01:02:51;101557.59;;;15.44;100.00
12969;BME280;6549;53.128;8.182;2023-06-10T01:06:31;101548.88;;;15.46;100.00
12969;BME280;6549;53.128;8.182;2023-06-10T01:13:06;101548.50;;;15.33;100.00
12969;BME280;6549;53.128;8.182;2023-06-10T01:16:09;101540.19;;;15.37;100.00
12969;BME280;6549;53.128;8.182;2023-06-10T01:19:11;101554.06;;;15.26;100.00
12969;BME280;6549;53.128;8.182;2023-06-10T01:22:11;101559.59;;;15.22;100.00
12969;BME280;6549;53.128;8.182;2023-06-10T01:25:16;101566.72;;;15.27;100.00
12969;BME280;6549;53.128;8.182;2023-06-10T01:31:37;101561.22;;;14.99;100.00
12969;BME280;6549;53.128;8.182;2023-06-10T01:34:41;101565.16;;;15.01;100.00
12969;BME280;6549;53.128;8.182;2023-06-10T01:37:45;101565.97;;;14.91;100.00
12969;BME280;6549;53.128;8.182;2023-06-10T01:40:46;101562.00;;;14.81;100.00
12969;BME280;6549;53.128;8.182;2023-06-10T01:43:48;101563.97;;;14.70;100.00
12969;BME280;6549;53.128;8.182;2023-06-10T01:46:49;101571.50;;;14.73;100.00
12969;BME280;6549;53.128;8.182;2023-06-10T01:49:49;101573.88;;;15.03;100.00
12969;BME280;6549;53.128;8.182;2023-06-10T01:52:50;101581.00;;;14.87;100.00
12969;BME280;6549;53.128;8.182;2023-06-10T01:55:50;101582.94;;;14.75;100.00
12969;BME280;6549;53.128;8.182;2023-06-10T01:58:50;101578.59;;;14.74;100.00
12969;BME280;6549;53.128;8.182;2023-06-10T02:01:51;101579.00;;;14.83;100.00
12969;BME280;6549;53.128;8.182;2023-06-10T02:04:51;101582.56;;;14.73;100.00
12969;BME280;6549;53.128;8.182;2023-06-10T02:07:51;101582.53;;;14.63;100.00
12969;BME280;6549;53.128;8.182;2023-06-10T02:10:52;101591.22;;;14.61;100.00
12969;BME280;6549;53.128;8.182;2023-06-10T02:13:52;101596.75;;;14.61;100.00
12969;BME280;6549;53.128;8.182;2023-06-10T02:16:52;101599.50;;;14.51;100.00
12969;BME280;6549;53.128;8.182;2023-06-10T02:19:56;101599.13;;;14.56;100.00
12969;BME280;6549;53.128;8.182;2023-06-10T02:22:57;101602.66;;;14.53;100.00
12969;BME280;6549;53.128;8.182;2023-06-10T02:25:57;101607.00;;;14.57;100.00
12969;BME280;6549;53.128;8.182;2023-06-10T02:28:58;101601.47;;;14.47;100.00
12969;BME280;6549;53.128;8.182;2023-06-10T02:31:58;101599.00;;;14.34;100.00
12969;BME280;6549;53.128;8.182;2023-06-10T02:34:58;101597.84;;;14.32;100.00
12969;BME280;6549;53.128;8.182;2023-06-10T02:38:00;101608.84;;;14.21;100.00
12969;BME280;6549;53.128;8.182;2023-06-10T02:41:00;101608.47;;;14.23;100.00
12969;BME280;6549;53.128;8.182;2023-06-10T02:44:00;101615.91;;;14.12;100.00
12969;BME280;6549;53.128;8.182;2023-06-10T02:47:01;101605.66;;;14.09;100.00
12969;BME280;6549;53.128;8.182;2023-06-10T02:50:01;101606.06;;;14.07;100.00
12969;BME280;6549;53.128;8.182;2023-06-10T02:53:03;101614.31;;;14.04;100.00
12969;BME280;6549;53.128;8.182;2023-06-10T02:56:04;101606.00;;;13.97;100.00
12969;BME280;6549;53.128;8.182;2023-06-10T02:59:05;101613.09;;;13.98;100.00
12969;BME280;6549;53.128;8.182;2023-06-10T03:02:07;101601.97;;;13.83;100.00
12969;BME280;6549;53.128;8.182;2023-06-10T03:05:07;101612.31;;;14.01;100.00
12969;BME280;6549;53.128;8.182;2023-06-10T03:08:11;101616.25;;;13.92;100.00
12969;BME280;6549;53.128;8.182;2023-06-10T03:11:11;101614.63;;;13.84;100.00
12969;BME280;6549;53.128;8.182;2023-06-10T03:14:11;101612.22;;;13.76;100.00
12969;BME280;6549;53.128;8.182;2023-06-10T03:17:12;101613.78;;;13.77;100.00
12969;BME280;6549;53.128;8.182;2023-06-10T03:20:12;101622.44;;;13.72;100.00
12969;BME280;6549;53.128;8.182;2023-06-10T03:23:15;101617.78;;;13.86;100.00
12969;BME280;6549;53.128;8.182;2023-06-10T03:26:16;101622.03;;;13.70;100.00
12969;BME280;6549;53.128;8.182;2023-06-10T03:29:16;101624.78;;;13.66;100.00
12969;BME280;6549;53.128;8.182;2023-06-10T03:32:17;101624.41;;;13.71;100.00
12969;BME280;6549;53.128;8.182;2023-06-10T03:35:17;101629.56;;;13.76;100.00
12969;BME280;6549;53.128;8.182;2023-06-10T03:38:17;101631.09;;;13.70;100.00
12969;BME280;6549;53.128;8.182;2023-06-10T03:41:18;101629.50;;;13.66;100.00
12969;BME280;6549;53.128;8.182;2023-06-10T03:44:18;101628.41;;;13.81;100.00
12969;BME280;6549;53.128;8.182;2023-06-10T03:47:18;101634.25;;;13.69;100.00
12969;BME280;6549;53.128;8.182;2023-06-10T03:50:19;101634.34;;;13.86;100.00
12969;BME280;6549;53.128;8.182;2023-06-10T03:53:20;101633.91;;;13.81;100.00
12969;BME280;6549;53.128;8.182;2023-06-10T03:56:20;101637.44;;;13.71;100.00
12969;BME280;6549;53.128;8.182;2023-06-10T03:59:20;101641.00;;;13.71;100.00
12969;BME280;6549;53.128;8.182;2023-06-10T04:02:21;101640.53;;;13.62;100.00
12969;BME280;6549;53.128;8.182;2023-06-10T04:05:21;101637.03;;;13.72;100.00
12969;BME280;6549;53.128;8.182;2023-06-10T04:08:21;101636.22;;;13.68;100.00
12969;BME280;6549;53.128;8.182;2023-06-10T04:11:25;101634.66;;;13.67;100.00
12969;BME280;6549;53.128;8.182;2023-06-10T04:14:25;101644.94;;;13.74;100.00
12969;BME280;6549;53.128;8.182;2023-06-10T04:17:26;101639.50;;;13.84;100.00
12969;BME280;6549;53.128;8.182;2023-06-10T04:20:27;101645.81;;;13.85;100.00
12969;BME280;6549;53.128;8.182;2023-06-10T04:23:27;101648.59;;;13.92;100.00
12969;BME280;6549;53.128;8.182;2023-06-10T04:26:28;101645.91;;;14.03;100.00
12969;BME280;6549;53.128;8.182;2023-06-10T04:29:28;101645.16;;;14.13;100.00
12969;BME280;6549;53.128;8.182;2023-06-10T04:32:29;101649.44;;;14.03;100.00
12969;BME280;6549;53.128;8.182;2023-06-10T04:35:29;101641.56;;;14.02;100.00
12969;BME280;6549;53.128;8.182;2023-06-10T04:38:29;101635.59;;;13.96;100.00
12969;BME280;6549;53.128;8.182;2023-06-10T04:41:31;101632.03;;;13.99;100.00
12969;BME280;6549;53.128;8.182;2023-06-10T04:44:31;101630.16;;;14.14;100.00
12969;BME280;6549;53.128;8.182;2023-06-10T04:47:31;101631.75;;;14.15;100.00
12969;BME280;6549;53.128;8.182;2023-06-10T04:50:33;101630.94;;;14.18;100.00
12969;BME280;6549;53.128;8.182;2023-06-10T04:53:33;101629.78;;;14.15;100.00
12969;BME280;6549;53.128;8.182;2023-06-10T04:56:33;101636.91;;;14.23;100.00
12969;BME280;6549;53.128;8.182;2023-06-10T04:59:34;101632.97;;;14.31;100.00
12969;BME280;6549;53.128;8.182;2023-06-10T05:02:38;101630.16;;;14.17;100.00
12969;BME280;6549;53.128;8.182;2023-06-10T05:05:38;101629.03;;;14.32;100.00
12969;BME280;6549;53.128;8.182;2023-06-10T05:08:38;101631.84;;;14.36;100.00
12969;BME280;6549;53.128;8.182;2023-06-10T05:11:39;101637.25;;;14.11;100.00
12969;BME280;6549;53.128;8.182;2023-06-10T05:14:39;101634.88;;;14.17;100.00
12969;BME280;6549;53.128;8.182;2023-06-10T05:17:39;101634.13;;;14.20;100.00
12969;BME280;6549;53.128;8.182;2023-06-10T05:20:40;101637.72;;;14.31;100.00
12969;BME280;6549;53.128;8.182;2023-06-10T05:23:40;101638.50;;;14.24;100.00
12969;BME280;6549;53.128;8.182;2023-06-10T05:26:40;101641.19;;;14.07;100.00
12969;BME280;6549;53.128;8.182;2023-06-10T05:29:41;101648.69;;;14.13;100.00
12969;BME280;6549;53.128;8.182;2023-06-10T05:32:41;101646.00;;;14.24;100.00
12969;BME280;6549;53.128;8.182;2023-06-10T05:35:42;101639.69;;;14.34;100.00
12969;BME280;6549;53.128;8.182;2023-06-10T05:38:42;101642.44;;;14.23;100.00
12969;BME280;6549;53.128;8.182;2023-06-10T05:41:42;101646.53;;;14.51;100.00
12969;BME280;6549;53.128;8.182;2023-06-10T05:44:42;101652.53;;;14.77;100.00
12969;BME280;6549;53.128;8.182;2023-06-10T05:47:43;101646.59;;;14.86;100.00
12969;BME280;6549;53.128;8.182;2023-06-10T05:50:43;101640.31;;;15.21;100.00
12969;BME280;6549;53.128;8.182;2023-06-10T05:53:48;101639.50;;;15.24;100.00
12969;BME280;6549;53.128;8.182;2023-06-10T05:56:48;101641.09;;;15.39;100.00
12969;BME280;6549;53.128;8.182;2023-06-10T05:59:48;101649.78;;;15.27;100.00
12969;BME280;6549;53.128;8.182;2023-06-10T06:02:49;101650.56;;;15.24;100.00
12969;BME280;6549;53.128;8.182;2023-06-10T06:05:51;101655.72;;;15.43;100.00
12969;BME280;6549;53.128;8.182;2023-06-10T06:08:51;101654.16;;;15.60;100.00
12969;BME280;6549;53.128;8.182;2023-06-10T06:11:51;101657.72;;;15.60;100.00
12969;BME280;6549;53.128;8.182;2023-06-10T06:14:51;101658.91;;;15.52;100.00
12969;BME280;6549;53.128;8.182;2023-06-10T06:17:52;101654.53;;;15.72;100.00
12969;BME280;6549;53.128;8.182;2023-06-10T06:20:52;101659.69;;;15.74;100.00
12969;BME280;6549;53.128;8.182;2023-06-10T06:23:53;101672.34;;;15.64;100.00
12969;BME280;6549;53.128;8.182;2023-06-10T06:26:53;101664.03;;;15.79;100.00
12969;BME280;6549;53.128;8.182;2023-06-10T06:29:53;101663.25;;;15.60;100.00
12969;BME280;6549;53.128;8.182;2023-06-10T06:32:54;101664.03;;;15.79;100.00
12969;BME280;6549;53.128;8.182;2023-06-10T06:35:55;101662.31;;;16.24;100.00
12969;BME280;6549;53.128;8.182;2023-06-10T06:38:55;101657.28;;;15.76;100.00
12969;BME280;6549;53.128;8.182;2023-06-10T06:41:56;101661.19;;;16.00;100.00
12969;BME280;6549;53.128;8.182;2023-06-10T06:44:56;101656.72;;;16.31;100.00
12969;BME280;6549;53.128;8.182;2023-06-10T06:47:57;101654.09;;;16.86;100.00
12969;BME280;6549;53.128;8.182;2023-06-10T06:50:57;101649.84;;;16.67;100.00
12969;BME280;6549;53.128;8.182;2023-06-10T06:53:58;101662.72;;;16.98;100.00
12969;BME280;6549;53.128;8.182;2023-06-10T06:56:59;101664.22;;;17.10;100.00
12969;BME280;6549;53.128;8.182;2023-06-10T06:59:59;101672.28;;;16.94;100.00
12969;BME280;6549;53.128;8.182;2023-06-10T07:02:59;101673.53;;;16.82;100.00
12969;BME280;6549;53.128;8.182;2023-06-10T07:06:00;101671.53;;;16.83;100.00
12969;BME280;6549;53.128;8.182;2023-06-10T07:09:00;101672.78;;;17.33;100.00
12969;BME280;6549;53.128;8.182;2023-06-10T07:12:00;101674.50;;;17.65;100.00
12969;BME280;6549;53.128;8.182;2023-06-10T07:15:01;101683.38;;;17.90;100.00
12969;BME280;6549;53.128;8.182;2023-06-10T07:18:01;101674.97;;;17.60;100.00
12969;BME280;6549;53.128;8.182;2023-06-10T07:21:01;101681.13;;;17.78;100.00
12969;BME280;6549;53.128;8.182;2023-06-10T07:24:02;101681.31;;;17.53;100.00
12969;BME280;6549;53.128;8.182;2023-06-10T07:27:02;101689.44;;;17.33;100.00
12969;BME280;6549;53.128;8.182;2023-06-10T07:30:04;101686.09;;;17.52;100.00
12969;BME280;6549;53.128;8.182;2023-06-10T07:33:06;101689.38;;;17.40;100.00
12969;BME280;6549;53.128;8.182;2023-06-10T07:36:08;101686.06;;;17.60;100.00
12969;BME280;6549;53.128;8.182;2023-06-10T07:39:08;101687.50;;;17.75;100.00
12969;BME280;6549;53.128;8.182;2023-06-10T07:42:09;101684.47;;;18.00;100.00
12969;BME280;6549;53.128;8.182;2023-06-10T07:45:10;101677.72;;;18.34;100.00
12969;BME280;6549;53.128;8.182;2023-06-10T07:48:10;101680.94;;;18.63;100.00
12969;BME280;6549;53.128;8.182;2023-06-10T07:51:11;101685.03;;;18.21;100.00
12969;BME280;6549;53.128;8.182;2023-06-10T07:54:11;101683.22;;;18.72;100.00
12969;BME280;6549;53.128;8.182;2023-06-10T07:57:15;101687.31;;;19.17;100.00
12969;BME280;6549;53.128;8.182;2023-06-10T08:00:16;101687.47;;;19.34;100.00
12969;BME280;6549;53.128;8.182;2023-06-10T08:03:16;101681.75;;;19.17;100.00
12969;BME280;6549;53.128;8.182;2023-06-10T08:06:16;101675.09;;;19.35;100.00
12969;BME280;6549;53.128;8.182;2023-06-10T08:09:17;101668.19;;;19.89;100.00
12969;BME280;6549;53.128;8.182;2023-06-10T08:12:18;101675.91;;;20.01;100.00
12969;BME280;6549;53.128;8.182;2023-06-10T08:15:18;101673.13;;;20.01;100.00
12969;BME280;6549;53.128;8.182;2023-06-10T08:18:22;101673.03;;;20.48;100.00
12969;BME280;6549;53.128;8.182;2023-06-10T08:21:22;101678.34;;;20.94;100.00
12969;BME280;6549;53.128;8.182;2023-06-10T08:24:22;101676.78;;;20.93;100.00
12969;BME280;6549;53.128;8.182;2023-06-10T08:27:23;101668.41;;;21.10;100.00
12969;BME280;6549;53.128;8.182;2023-06-10T08:30:23;101670.34;;;21.29;100.00
12969;BME280;6549;53.128;8.182;2023-06-10T08:33:23;101668.19;;;21.20;100.00
12969;BME280;6549;53.128;8.182;2023-06-10T08:36:24;101661.13;;;20.44;100.00
12969;BME280;6549;53.128;8.182;2023-06-10T08:39:24;101653.53;;;20.80;100.00
12969;BME280;6549;53.128;8.182;2023-06-10T08:42:30;101663.72;;;21.06;100.00
12969;BME280;6549;53.128;8.182;2023-06-10T08:45:37;101656.13;;;21.23;100.00
12969;BME280;6549;53.128;8.182;2023-06-10T08:48:44;101666.97;;;21.21;100.00
12969;BME280;6549;53.128;8.182;2023-06-10T08:51:50;101673.03;;;21.81;100.00
12969;BME280;6549;53.128;8.182;2023-06-10T08:55:04;101665.41;;;21.81;100.00
12969;BME280;6549;53.128;8.182;2023-06-10T08:58:05;101671.16;;;21.90;100.00
12969;BME280;6549;53.128;8.182;2023-06-10T09:01:06;101657.72;;;21.69;100.00
12969;BME280;6549;53.128;8.182;2023-06-10T09:04:06;101655.03;;;22.11;100.00
12969;BME280;6549;53.128;8.182;2023-06-10T09:07:07;101657.88;;;22.36;100.00
12969;BME280;6549;53.128;8.182;2023-06-10T09:10:07;101660.88;;;22.70;100.00
12969;BME280;6549;53.128;8.182;2023-06-10T09:13:08;101657.44;;;22.25;100.00
12969;BME280;6549;53.128;8.182;2023-06-10T09:16:08;101654.22;;;22.39;100.00
12969;BME280;6549;53.128;8.182;2023-06-10T09:19:10;101656.63;;;23.04;100.00
12969;BME280;6549;53.128;8.182;2023-06-10T09:22:11;101652.19;;;23.53;100.00
12969;BME280;6549;53.128;8.182;2023-06-10T09:25:12;101646.28;;;23.95;98.01
12969;BME280;6549;53.128;8.182;2023-06-10T09:28:14;101646.94;;;23.30;93.75
12969;BME280;6549;53.128;8.182;2023-06-10T09:31:16;101643.09;;;23.84;97.64
12969;BME280;6549;53.128;8.182;2023-06-10T09:34:18;101635.28;;;23.44;100.00
12969;BME280;6549;53.128;8.182;2023-06-10T09:37:23;101634.41;;;23.22;91.94
12969;BME280;6549;53.128;8.182;2023-06-10T09:40:24;101626.09;;;23.06;99.61
12969;BME280;6549;53.128;8.182;2023-06-10T09:43:42;101626.44;;;23.67;96.40
12969;BME280;6549;53.128;8.182;2023-06-10T09:46:50;101627.81;;;24.06;90.05
12969;BME280;6549;53.128;8.182;2023-06-10T09:49:51;101623.56;;;24.45;90.01
12969;BME280;6549;53.128;8.182;2023-06-10T09:52:53;101615.81;;;24.58;89.14
12969;BME280;6549;53.128;8.182;2023-06-10T09:55:53;101624.69;;;24.88;80.09
12969;BME280;6549;53.128;8.182;2023-06-10T09:58:54;101628.16;;;25.01;78.07
12969;BME280;6549;53.128;8.182;2023-06-10T10:01:55;101634.06;;;25.43;77.67
12969;BME280;6549;53.128;8.182;2023-06-10T10:05:02;101624.88;;;25.88;70.38
12969;BME280;6549;53.128;8.182;2023-06-10T10:08:03;101627.34;;;25.77;70.17
12969;BME280;6549;53.128;8.182;2023-06-10T10:11:04;101634.81;;;25.25;74.31
12969;BME280;6549;53.128;8.182;2023-06-10T10:14:05;101633.59;;;25.81;74.79
12969;BME280;6549;53.128;8.182;2023-06-10T10:17:10;101634.38;;;26.00;72.77
12969;BME280;6549;53.128;8.182;2023-06-10T10:20:13;101637.34;;;26.14;70.11
12969;BME280;6549;53.128;8.182;2023-06-10T10:23:19;101633.19;;;26.52;70.61
12969;BME280;6549;53.128;8.182;2023-06-10T10:26:22;101633.91;;;26.19;65.61
12969;BME280;6549;53.128;8.182;2023-06-10T10:29:39;101626.84;;;25.42;74.16
12969;BME280;6549;53.128;8.182;2023-06-10T10:32:44;101633.66;;;24.95;69.37
12969;BME280;6549;53.128;8.182;2023-06-10T10:35:46;101629.56;;;24.96;67.72
12969;BME280;6549;53.128;8.182;2023-06-10T10:38:48;101632.72;;;24.68;68.96
12969;BME280;6549;53.128;8.182;2023-06-10T10:41:50;101633.59;;;24.86;73.18
12969;BME280;6549;53.128;8.182;2023-06-10T10:44:51;101624.19;;;25.38;73.14
12969;BME280;6549;53.128;8.182;2023-06-10T10:47:53;101627.50;;;26.01;66.68
12969;BME280;6549;53.128;8.182;2023-06-10T10:50:57;101622.84;;;26.58;60.54
12969;BME280;6549;53.128;8.182;2023-06-10T10:54:14;101629.91;;;27.19;60.25
12969;BME280;6549;53.128;8.182;2023-06-10T10:57:19;101627.91;;;26.87;57.25
12969;BME280;6549;53.128;8.182;2023-06-10T11:00:31;101620.69;;;26.44;59.98
12969;BME280;6549;53.128;8.182;2023-06-10T11:03:42;101622.56;;;26.47;53.96
12969;BME280;6549;53.128;8.182;2023-06-10T11:06:53;101627.66;;;26.15;57.74
12969;BME280;6549;53.128;8.182;2023-06-10T11:10:08;101624.16;;;26.80;60.63
12969;BME280;6549;53.128;8.182;2023-06-10T11:13:13;101619.03;;;27.26;60.87
12969;BME280;6549;53.128;8.182;2023-06-10T11:16:19;101617.72;;;27.37;57.50
12969;BME280;6549;53.128;8.182;2023-06-10T11:19:37;101624.63;;;27.36;55.13
12969;BME280;6549;53.128;8.182;2023-06-10T11:22:58;101618.38;;;26.75;53.91
12969;BME280;6549;53.128;8.182;2023-06-10T11:29:21;101616.53;;;27.29;55.20
12969;BME280;6549;53.128;8.182;2023-06-10T11:32:24;101611.13;;;26.92;55.10
12969;BME280;6549;53.128;8.182;2023-06-10T11:35:26;101608.84;;;27.53;56.51
12969;BME280;6549;53.128;8.182;2023-06-10T11:38:27;101603.69;;;28.04;53.54
12969;BME280;6549;53.128;8.182;2023-06-10T11:41:29;101590.22;;;27.70;52.25
12969;BME280;6549;53.128;8.182;2023-06-10T11:44:30;101605.06;;;28.24;50.04
12969;BME280;6549;53.128;8.182;2023-06-10T11:47:33;101605.47;;;27.40;49.85
12969;BME280;6549;53.128;8.182;2023-06-10T11:50:33;101597.56;;;27.05;52.79
12969;BME280;6549;53.128;8.182;2023-06-10T11:53:34;101597.50;;;27.77;50.23
12969;BME280;6549;53.128;8.182;2023-06-10T11:56:35;101596.66;;;28.00;47.92
12969;BME280;6549;53.128;8.182;2023-06-10T11:59:35;101596.09;;;28.10;47.61
12969;BME280;6549;53.128;8.182;2023-06-10T12:02:35;101586.94;;;28.16;49.35
12969;BME280;6549;53.128;8.182;2023-06-10T12:05:36;101579.13;;;28.10;46.32
12969;BME280;6549;53.128;8.182;2023-06-10T12:08:42;101581.66;;;27.94;41.46
12969;BME280;6549;53.128;8.182;2023-06-10T12:11:43;101579.47;;;27.59;38.85
12969;BME280;6549;53.128;8.182;2023-06-10T12:14:57;101570.81;;;27.63;37.64
12969;BME280;6549;53.128;8.182;2023-06-10T12:17:58;101580.97;;;27.99;39.60
12969;BME280;6549;53.128;8.182;2023-06-10T12:20:58;101574.69;;;28.19;37.70
12969;BME280;6549;53.128;8.182;2023-06-10T12:24:03;101580.41;;;28.39;36.65
12969;BME280;6549;53.128;8.182;2023-06-10T12:27:04;101572.94;;;28.71;35.77
12969;BME280;6549;53.128;8.182;2023-06-10T12:30:05;101577.81;;;28.70;33.39
12969;BME280;6549;53.128;8.182;2023-06-10T12:33:16;101573.59;;;28.31;38.83
12969;BME280;6549;53.128;8.182;2023-06-10T12:36:16;101568.97;;;28.48;38.96
12969;BME280;6549;53.128;8.182;2023-06-10T12:39:17;101560.88;;;28.90;37.07
12969;BME280;6549;53.128;8.182;2023-06-10T12:42:21;101562.31;;;29.00;34.63
12969;BME280;6549;53.128;8.182;2023-06-10T12:45:32;101558.22;;;29.42;34.84
12969;BME280;6549;53.128;8.182;2023-06-10T12:48:33;101558.75;;;29.26;36.22
12969;BME280;6549;53.128;8.182;2023-06-10T12:51:33;101565.72;;;29.45;35.43
12969;BME280;6549;53.128;8.182;2023-06-10T12:54:37;101569.28;;;29.66;36.05
12969;BME280;6549;53.128;8.182;2023-06-10T12:57:47;101567.69;;;29.19;32.92
12969;BME280;6549;53.128;8.182;2023-06-10T13:00:48;101569.66;;;28.72;33.08
12969;BME280;6549;53.128;8.182;2023-06-10T13:03:49;101553.50;;;28.78;34.23
12969;BME280;6549;53.128;8.182;2023-06-10T13:06:49;101546.09;;;29.01;33.31
12969;BME280;6549;53.128;8.182;2023-06-10T13:09:49;101548.22;;;29.47;36.16
12969;BME280;6549;53.128;8.182;2023-06-10T13:12:50;101555.25;;;29.31;33.29
12969;BME280;6549;53.128;8.182;2023-06-10T13:15:50;101552.63;;;29.73;31.25
12969;BME280;6549;53.128;8.182;2023-06-10T13:18:53;101550.75;;;29.65;31.03
12969;BME280;6549;53.128;8.182;2023-06-10T13:21:54;101548.91;;;29.87;30.05
12969;BME280;6549;53.128;8.182;2023-06-10T13:24:54;101547.28;;;30.07;28.47
12969;BME280;6549;53.128;8.182;2023-06-10T13:27:54;101542.47;;;30.18;29.74
12969;BME280;6549;53.128;8.182;2023-06-10T13:30:55;101536.84;;;29.67;30.53
12969;BME280;6549;53.128;8.182;2023-06-10T13:33:55;101535.88;;;29.96;31.09
12969;BME280;6549;53.128;8.182;2023-06-10T13:36:56;101525.53;;;29.93;32.13
12969;BME280;6549;53.128;8.182;2023-06-10T13:39:56;101525.41;;;30.07;31.55
12969;BME280;6549;53.128;8.182;2023-06-10T13:42:57;101511.81;;;30.17;32.07
12969;BME280;6549;53.128;8.182;2023-06-10T13:45:57;101516.84;;;29.76;28.63
12969;BME280;6549;53.128;8.182;2023-06-10T13:48:58;101518.56;;;29.42;28.16
12969;BME280;6549;53.128;8.182;2023-06-10T13:51:58;101517.16;;;29.83;28.44
12969;BME280;6549;53.128;8.182;2023-06-10T13:54:58;101525.75;;;29.89;27.39
12969;BME280;6549;53.128;8.182;2023-06-10T13:57:58;101516.81;;;29.96;27.58
12969;BME280;6549;53.128;8.182;2023-06-10T14:00:59;101518.28;;;29.40;29.19
12969;BME280;6549;53.128;8.182;2023-06-10T14:04:00;101509.41;;;29.78;29.46
12969;BME280;6549;53.128;8.182;2023-06-10T14:07:00;101506.34;;;30.08;28.23
12969;BME280;6549;53.128;8.182;2023-06-10T14:10:00;101516.94;;;30.13;27.22
12969;BME280;6549;53.128;8.182;2023-06-10T14:13:01;101503.59;;;30.56;27.56
12969;BME280;6549;53.128;8.182;2023-06-10T14:16:01;101503.50;;;30.08;28.43
12969;BME280;6549;53.128;8.182;2023-06-10T14:19:03;101511.69;;;30.31;28.75
12969;BME280;6549;53.128;8.182;2023-06-10T14:22:03;101496.63;;;29.63;30.12
12969;BME280;6549;53.128;8.182;2023-06-10T14:25:04;101495.75;;;29.51;29.83
12969;BME280;6549;53.128;8.182;2023-06-10T14:28:04;101489.19;;;29.65;30.12
12969;BME280;6549;53.128;8.182;2023-06-10T14:31:05;101496.63;;;29.63;29.41
12969;BME280;6549;53.128;8.182;2023-06-10T14:34:05;101496.94;;;29.91;29.69
12969;BME280;6549;53.128;8.182;2023-06-10T14:37:07;101496.63;;;29.88;29.40
12969;BME280;6549;53.128;8.182;2023-06-10T14:40:08;101496.94;;;29.91;30.22
12969;BME280;6549;53.128;8.182;2023-06-10T14:43:08;101482.38;;;29.83;29.51
12969;BME280;6549;53.128;8.182;2023-06-10T14:46:13;101488.97;;;29.69;30.51
12969;BME280;6549;53.128;8.182;2023-06-10T14:49:13;101492.78;;;29.66;28.89
12969;BME280;6549;53.128;8.182;2023-06-10T14:52:13;101482.28;;;29.98;29.32
12969;BME280;6549;53.128;8.182;2023-06-10T14:55:14;101480.75;;;30.33;28.68
12969;BME280;6549;53.128;8.182;2023-06-10T14:58:16;101482.44;;;30.20;28.21
12969;BME280;6549;53.128;8.182;2023-06-10T15:01:16;101490.66;;;30.12;28.49
12969;BME280;6549;53.128;8.182;2023-06-10T15:04:16;101485.59;;;29.91;29.97
12969;BME280;6549;53.128;8.182;2023-06-10T15:07:17;101483.81;;;30.30;29.51
12969;BME280;6549;53.128;8.182;2023-06-10T15:10:18;101478.34;;;30.63;29.12
12969;BME280;6549;53.128;8.182;2023-06-10T15:13:18;101482.44;;;30.20;28.68
12969;BME280;6549;53.128;8.182;2023-06-10T15:16:18;101476.66;;;30.03;28.83
12969;BME280;6549;53.128;8.182;2023-06-10T15:19:19;101473.56;;;30.01;29.54
12969;BME280;6549;53.128;8.182;2023-06-10T15:22:19;101469.84;;;30.21;29.37
12969;BME280;6549;53.128;8.182;2023-06-10T15:25:19;101472.31;;;30.08;28.92
12969;BME280;6549;53.128;8.182;2023-06-10T15:28:20;101472.09;;;29.54;30.70
12969;BME280;6549;53.128;8.182;2023-06-10T15:31:20;101466.44;;;29.54;30.38
12969;BME280;6549;53.128;8.182;2023-06-10T15:34:21;101458.88;;;29.71;30.52
12969;BME280;6549;53.128;8.182;2023-06-10T15:37:21;101463.66;;;29.60;30.72
12969;BME280;6549;53.128;8.182;2023-06-10T15:40:21;101464.97;;;29.90;30.38
12969;BME280;6549;53.128;8.182;2023-06-10T15:43:21;101452.25;;;29.80;30.37
12969;BME280;6549;53.128;8.182;2023-06-10T15:46:22;101451.22;;;29.83;30.36
12969;BME280;6549;53.128;8.182;2023-06-10T15:49:23;101444.78;;;29.51;30.82
12969;BME280;6549;53.128;8.182;2023-06-10T15:52:23;101441.97;;;29.51;31.56
12969;BME280;6549;53.128;8.182;2023-06-10T15:55:24;101444.06;;;29.56;32.37
12969;BME280;6549;53.128;8.182;2023-06-10T15:58:25;101434.13;;;29.40;32.04
12969;BME280;6549;53.128;8.182;2023-06-10T16:01:26;101441.28;;;29.36;32.98
12969;BME280;6549;53.128;8.182;2023-06-10T16:04:26;101430.81;;;29.42;33.77
12969;BME280;6549;53.128;8.182;2023-06-10T16:07:26;101437.28;;;29.48;32.81